<?xml version="1.0" encoding="UTF-8" standalone="no" ?>
<gpx xmlns="http://www.topografix.com/GPX/1/1" xmlns:xsi="http://www.w3.org/2001/XMLSchema-instance" xsi:schemaLocation="http://www.topografix.com/GPX/1/1 http://www.topografix.com/GPX/1/1/gpx.xsd" version="1.1" creator="VisuGPX - https://www.visugpx.com">
  <metadata>
    <name>De Meillerie à Salvigny</name>
    <desc><![CDATA[Randonnée en Haute-Savoie]]></desc>
  </metadata>
  <trk>
    <name><![CDATA[ACTIVE LOG: 29 JUL 2015 13:23]]></name>
    <trkseg>
      <trkpt lat="46.08355" lon="6.72817">
        <ele>705.26</ele>
        <time>2015-07-29T11:27:06Z</time>
      </trkpt>
      <trkpt lat="46.08335" lon="6.72897">
        <ele>709.11</ele>
        <time>2015-07-29T11:28:11Z</time>
      </trkpt>
      <trkpt lat="46.08318" lon="6.72974">
        <ele>711.51</ele>
        <time>2015-07-29T11:29:16Z</time>
      </trkpt>
      <trkpt lat="46.0827" lon="6.73009">
        <ele>713.44</ele>
        <time>2015-07-29T11:30:21Z</time>
      </trkpt>
      <trkpt lat="46.08205" lon="6.7306">
        <ele>714.88</ele>
        <time>2015-07-29T11:31:26Z</time>
      </trkpt>
      <trkpt lat="46.0816" lon="6.73095">
        <ele>716.8</ele>
        <time>2015-07-29T11:32:31Z</time>
      </trkpt>
      <trkpt lat="46.08101" lon="6.73123">
        <ele>715.84</ele>
        <time>2015-07-29T11:33:36Z</time>
      </trkpt>
      <trkpt lat="46.08046" lon="6.73163">
        <ele>721.13</ele>
        <time>2015-07-29T11:34:41Z</time>
      </trkpt>
      <trkpt lat="46.08027" lon="6.73118">
        <ele>721.13</ele>
        <time>2015-07-29T11:35:46Z</time>
      </trkpt>
      <trkpt lat="46.07986" lon="6.73061">
        <ele>720.16</ele>
        <time>2015-07-29T11:36:51Z</time>
      </trkpt>
      <trkpt lat="46.07944" lon="6.73026">
        <ele>720.65</ele>
        <time>2015-07-29T11:37:56Z</time>
      </trkpt>
      <trkpt lat="46.07948" lon="6.7302">
        <ele>718.72</ele>
        <time>2015-07-29T11:39:01Z</time>
      </trkpt>
      <trkpt lat="46.07924" lon="6.72994">
        <ele>718.72</ele>
        <time>2015-07-29T11:40:06Z</time>
      </trkpt>
      <trkpt lat="46.07872" lon="6.72935">
        <ele>718.24</ele>
        <time>2015-07-29T11:41:11Z</time>
      </trkpt>
      <trkpt lat="46.07808" lon="6.72884">
        <ele>713.92</ele>
        <time>2015-07-29T11:42:16Z</time>
      </trkpt>
      <trkpt lat="46.07749" lon="6.72811">
        <ele>717.28</ele>
        <time>2015-07-29T11:43:21Z</time>
      </trkpt>
      <trkpt lat="46.07685" lon="6.72749">
        <ele>723.53</ele>
        <time>2015-07-29T11:44:26Z</time>
      </trkpt>
      <trkpt lat="46.0763" lon="6.72731">
        <ele>716.32</ele>
        <time>2015-07-29T11:45:31Z</time>
      </trkpt>
      <trkpt lat="46.07631" lon="6.72815">
        <ele>720.16</ele>
        <time>2015-07-29T11:46:36Z</time>
      </trkpt>
      <trkpt lat="46.07627" lon="6.72879">
        <ele>717.28</ele>
        <time>2015-07-29T11:47:41Z</time>
      </trkpt>
      <trkpt lat="46.07606" lon="6.72978">
        <ele>718.24</ele>
        <time>2015-07-29T11:48:46Z</time>
      </trkpt>
      <trkpt lat="46.07555" lon="6.7305">
        <ele>721.61</ele>
        <time>2015-07-29T11:49:51Z</time>
      </trkpt>
      <trkpt lat="46.07488" lon="6.73092">
        <ele>724.01</ele>
        <time>2015-07-29T11:50:56Z</time>
      </trkpt>
      <trkpt lat="46.07417" lon="6.73124">
        <ele>724.49</ele>
        <time>2015-07-29T11:52:01Z</time>
      </trkpt>
      <trkpt lat="46.07348" lon="6.73153">
        <ele>722.57</ele>
        <time>2015-07-29T11:53:06Z</time>
      </trkpt>
      <trkpt lat="46.07284" lon="6.73187">
        <ele>727.86</ele>
        <time>2015-07-29T11:54:11Z</time>
      </trkpt>
      <trkpt lat="46.07216" lon="6.7322">
        <ele>726.89</ele>
        <time>2015-07-29T11:55:16Z</time>
      </trkpt>
      <trkpt lat="46.07152" lon="6.73216">
        <ele>727.37</ele>
        <time>2015-07-29T11:56:21Z</time>
      </trkpt>
      <trkpt lat="46.07123" lon="6.73206">
        <ele>730.26</ele>
        <time>2015-07-29T11:57:26Z</time>
      </trkpt>
      <trkpt lat="46.07108" lon="6.73221">
        <ele>728.82</ele>
        <time>2015-07-29T11:58:31Z</time>
      </trkpt>
      <trkpt lat="46.0707" lon="6.7327">
        <ele>729.78</ele>
        <time>2015-07-29T11:59:36Z</time>
      </trkpt>
      <trkpt lat="46.07028" lon="6.73332">
        <ele>732.18</ele>
        <time>2015-07-29T12:00:41Z</time>
      </trkpt>
      <trkpt lat="46.06983" lon="6.73385">
        <ele>733.62</ele>
        <time>2015-07-29T12:01:46Z</time>
      </trkpt>
      <trkpt lat="46.06951" lon="6.73447">
        <ele>733.62</ele>
        <time>2015-07-29T12:02:51Z</time>
      </trkpt>
      <trkpt lat="46.06914" lon="6.73511">
        <ele>734.58</ele>
        <time>2015-07-29T12:03:56Z</time>
      </trkpt>
      <trkpt lat="46.06875" lon="6.73572">
        <ele>731.7</ele>
        <time>2015-07-29T12:05:01Z</time>
      </trkpt>
      <trkpt lat="46.06821" lon="6.73623">
        <ele>732.18</ele>
        <time>2015-07-29T12:06:06Z</time>
      </trkpt>
      <trkpt lat="46.06759" lon="6.73641">
        <ele>733.62</ele>
        <time>2015-07-29T12:07:11Z</time>
      </trkpt>
      <trkpt lat="46.06717" lon="6.73653">
        <ele>736.51</ele>
        <time>2015-07-29T12:08:16Z</time>
      </trkpt>
      <trkpt lat="46.06651" lon="6.7368">
        <ele>738.43</ele>
        <time>2015-07-29T12:09:21Z</time>
      </trkpt>
      <trkpt lat="46.06615" lon="6.73704">
        <ele>742.76</ele>
        <time>2015-07-29T12:10:26Z</time>
      </trkpt>
      <trkpt lat="46.06564" lon="6.73729">
        <ele>724.49</ele>
        <time>2015-07-29T12:11:31Z</time>
      </trkpt>
      <trkpt lat="46.06496" lon="6.73762">
        <ele>726.89</ele>
        <time>2015-07-29T12:12:36Z</time>
      </trkpt>
      <trkpt lat="46.06425" lon="6.73796">
        <ele>726.89</ele>
        <time>2015-07-29T12:13:41Z</time>
      </trkpt>
      <trkpt lat="46.06358" lon="6.73806">
        <ele>730.74</ele>
        <time>2015-07-29T12:14:46Z</time>
      </trkpt>
      <trkpt lat="46.06304" lon="6.73848">
        <ele>733.14</ele>
        <time>2015-07-29T12:15:51Z</time>
      </trkpt>
      <trkpt lat="46.06259" lon="6.73924">
        <ele>733.62</ele>
        <time>2015-07-29T12:16:56Z</time>
      </trkpt>
      <trkpt lat="46.06233" lon="6.73987">
        <ele>735.55</ele>
        <time>2015-07-29T12:18:01Z</time>
      </trkpt>
      <trkpt lat="46.06204" lon="6.74034">
        <ele>733.62</ele>
        <time>2015-07-29T12:19:06Z</time>
      </trkpt>
      <trkpt lat="46.06182" lon="6.74113">
        <ele>737.47</ele>
        <time>2015-07-29T12:20:11Z</time>
      </trkpt>
      <trkpt lat="46.06142" lon="6.74151">
        <ele>737.47</ele>
        <time>2015-07-29T12:21:16Z</time>
      </trkpt>
      <trkpt lat="46.06096" lon="6.7421">
        <ele>738.43</ele>
        <time>2015-07-29T12:22:21Z</time>
      </trkpt>
      <trkpt lat="46.06076" lon="6.74296">
        <ele>736.03</ele>
        <time>2015-07-29T12:23:26Z</time>
      </trkpt>
      <trkpt lat="46.06035" lon="6.74371">
        <ele>738.43</ele>
        <time>2015-07-29T12:24:31Z</time>
      </trkpt>
      <trkpt lat="46.05993" lon="6.74451">
        <ele>739.39</ele>
        <time>2015-07-29T12:25:36Z</time>
      </trkpt>
      <trkpt lat="46.05947" lon="6.74529">
        <ele>738.91</ele>
        <time>2015-07-29T12:26:41Z</time>
      </trkpt>
      <trkpt lat="46.05912" lon="6.74574">
        <ele>740.83</ele>
        <time>2015-07-29T12:27:46Z</time>
      </trkpt>
      <trkpt lat="46.05909" lon="6.74573">
        <ele>741.31</ele>
        <time>2015-07-29T12:28:51Z</time>
      </trkpt>
      <trkpt lat="46.05911" lon="6.74562">
        <ele>740.35</ele>
        <time>2015-07-29T12:29:56Z</time>
      </trkpt>
      <trkpt lat="46.05883" lon="6.74522">
        <ele>741.79</ele>
        <time>2015-07-29T12:31:01Z</time>
      </trkpt>
      <trkpt lat="46.05866" lon="6.74438">
        <ele>747.08</ele>
        <time>2015-07-29T12:32:06Z</time>
      </trkpt>
      <trkpt lat="46.05862" lon="6.74359">
        <ele>755.73</ele>
        <time>2015-07-29T12:33:11Z</time>
      </trkpt>
      <trkpt lat="46.05814" lon="6.74417">
        <ele>760.54</ele>
        <time>2015-07-29T12:34:16Z</time>
      </trkpt>
      <trkpt lat="46.05771" lon="6.74469">
        <ele>763.42</ele>
        <time>2015-07-29T12:35:21Z</time>
      </trkpt>
      <trkpt lat="46.05738" lon="6.74546">
        <ele>766.79</ele>
        <time>2015-07-29T12:36:26Z</time>
      </trkpt>
      <trkpt lat="46.05698" lon="6.74628">
        <ele>768.71</ele>
        <time>2015-07-29T12:37:31Z</time>
      </trkpt>
      <trkpt lat="46.05658" lon="6.74714">
        <ele>766.79</ele>
        <time>2015-07-29T12:38:36Z</time>
      </trkpt>
      <trkpt lat="46.05652" lon="6.74758">
        <ele>765.83</ele>
        <time>2015-07-29T12:39:29Z</time>
      </trkpt>
    </trkseg>
  </trk>
</gpx>